createdAt,value
2023-03-06T00:01:48.972Z,2.00
2023-03-06T00:06:51.102Z,1.94
2023-03-06T00:11:52.722Z,2.08
2023-03-06T00:16:55.900Z,2.05
2023-03-06T00:21:57.688Z,2.07
2023-03-06T00:26:59.347Z,2.10
2023-03-06T00:32:01.161Z,1.84
2023-03-06T00:37:02.868Z,1.87
2023-03-06T00:42:04.794Z,1.95
2023-03-06T00:47:06.613Z,1.92
2023-03-06T00:52:08.298Z,1.89
2023-03-06T00:57:10.156Z,1.83
2023-03-06T01:02:11.969Z,1.77
2023-03-06T01:07:13.688Z,1.92
2023-03-06T01:12:15.602Z,1.81
2023-03-06T01:17:17.794Z,1.87
2023-03-06T01:22:19.409Z,1.80
2023-03-06T01:27:21.161Z,1.74
2023-03-06T01:32:22.859Z,1.80
2023-03-06T01:37:24.551Z,1.66
2023-03-06T01:42:26.183Z,1.58
2023-03-06T01:47:28.204Z,1.61
2023-03-06T01:52:35.524Z,1.68
2023-03-06T01:57:44.676Z,1.64
2023-03-06T02:03:14.533Z,1.55
2023-03-06T02:08:19.437Z,1.68
2023-03-06T02:13:21.248Z,1.61
2023-03-06T02:18:27.550Z,1.51
2023-03-06T02:23:57.155Z,1.57
2023-03-06T02:28:59.343Z,1.61
2023-03-06T02:34:15.874Z,1.50
2023-03-06T02:39:22.276Z,1.61
2023-03-06T02:44:25.989Z,1.49
2023-03-06T02:49:27.745Z,1.56
2023-03-06T02:54:29.589Z,1.49
2023-03-06T02:59:31.269Z,1.44
2023-03-06T03:04:34.382Z,1.43
2023-03-06T03:09:37.298Z,1.32
2023-03-06T03:14:39.501Z,1.36
2023-03-06T03:19:41.450Z,1.38
2023-03-06T03:24:43.492Z,1.21
2023-03-06T03:29:45.318Z,1.13
2023-03-06T03:34:47.293Z,1.07
2023-03-06T03:39:49.052Z,1.07
2023-03-06T03:44:51.607Z,1.19
2023-03-06T03:49:55.782Z,1.11
2023-03-06T03:54:58.514Z,1.01
2023-03-06T04:00:01.892Z,0.93
2023-03-06T04:05:29.563Z,0.94
2023-03-06T04:10:32.697Z,1.06
2023-03-06T04:15:34.385Z,0.98
2023-03-06T04:20:36.730Z,0.98
2023-03-06T04:25:39.543Z,1.03
2023-03-06T04:30:43.785Z,1.10
2023-03-06T04:35:45.489Z,0.91
2023-03-06T04:40:52.987Z,1.10
2023-03-06T04:45:54.708Z,1.03
2023-03-06T04:50:56.368Z,0.98
2023-03-06T04:55:58.075Z,0.98
2023-03-06T05:00:59.747Z,0.95
2023-03-06T05:06:01.917Z,0.97
2023-03-06T05:11:03.667Z,0.93
2023-03-06T05:16:07.007Z,0.90
2023-03-06T05:21:09.334Z,0.83
2023-03-06T05:26:12.714Z,0.84
2023-03-06T05:31:14.538Z,0.86
2023-03-06T05:36:16.176Z,0.81
2023-03-06T05:41:17.978Z,0.73
2023-03-06T05:46:21.030Z,0.65
2023-03-06T05:51:23.077Z,0.70
2023-03-06T05:56:24.708Z,0.81
2023-03-06T06:01:28.591Z,0.81
2023-03-06T06:06:30.783Z,0.79
2023-03-06T06:11:33.287Z,0.84
2023-03-06T06:16:35.489Z,0.91
2023-03-06T06:21:39.254Z,1.03
2023-03-06T06:26:42.242Z,0.93
2023-03-06T06:31:44.830Z,0.97
2023-03-06T06:36:47.460Z,0.90
2023-03-06T06:42:02.728Z,1.07
2023-03-06T06:47:27.338Z,1.03
2023-03-06T06:52:29.343Z,1.19
2023-03-06T06:57:31.433Z,1.22
2023-03-06T07:02:36.325Z,1.25
2023-03-06T07:07:38.639Z,1.49
2023-03-06T07:12:40.711Z,1.62
2023-03-06T07:17:42.655Z,1.65
2023-03-06T07:22:51.410Z,1.86
2023-03-06T07:27:55.150Z,2.00
2023-03-06T07:32:58.792Z,2.10
2023-03-06T07:38:00.831Z,2.05
2023-03-06T07:43:18.268Z,2.17
2023-03-06T07:48:27.724Z,2.23
2023-03-06T07:53:29.410Z,2.40
2023-03-06T07:58:31.131Z,2.47
2023-03-06T08:03:33.489Z,2.56
2023-03-06T08:08:36.819Z,2.89
2023-03-06T08:13:39.041Z,2.95
2023-03-06T08:18:40.929Z,2.98
2023-03-06T08:23:43.184Z,3.10
2023-03-06T08:28:44.898Z,3.01
2023-03-06T08:33:47.121Z,3.14
2023-03-06T08:38:48.803Z,3.36
2023-03-06T08:43:50.938Z,3.39
2023-03-06T08:48:52.610Z,3.27
2023-03-06T08:53:54.864Z,3.44
2023-03-06T08:58:58.380Z,3.26
2023-03-06T09:04:02.157Z,3.16
2023-03-06T09:09:05.138Z,3.17
2023-03-06T09:14:06.814Z,3.29
2023-03-06T09:19:08.480Z,3.67
2023-03-06T09:24:10.125Z,3.74
2023-03-06T09:29:12.638Z,3.81
2023-03-06T09:34:14.354Z,3.94
2023-03-06T09:39:16.065Z,4.36
2023-03-06T09:44:22.708Z,4.34
2023-03-06T09:49:43.126Z,4.36
2023-03-06T09:54:47.931Z,4.54
2023-03-06T09:59:54.592Z,4.73
2023-03-06T10:05:01.128Z,4.99
2023-03-06T10:10:06.793Z,4.79
2023-03-06T10:15:26.742Z,4.54
2023-03-06T10:20:36.473Z,4.71
2023-03-06T10:26:01.195Z,4.74
2023-03-06T10:31:26.007Z,4.47
2023-03-06T10:36:29.094Z,4.69
2023-03-06T10:41:32.817Z,4.64
2023-03-06T10:46:42.895Z,4.52
2023-03-06T10:52:06.934Z,4.73
2023-03-06T10:57:32.766Z,4.70
2023-03-06T11:02:41.029Z,4.45
2023-03-06T11:08:00.271Z,4.29
2023-03-06T11:13:08.471Z,4.47
2023-03-06T11:18:10.027Z,4.40
2023-03-06T11:23:36.161Z,3.97
2023-03-06T11:28:40.771Z,3.62
2023-03-06T11:33:52.888Z,3.48
2023-03-06T11:38:54.978Z,3.51
2023-03-06T11:44:19.942Z,3.46
2023-03-06T11:49:30.889Z,3.67
2023-03-06T11:54:33.640Z,3.86
2023-03-06T11:59:56.554Z,4.16
2023-03-06T12:05:10.642Z,4.43
2023-03-06T12:10:24.485Z,4.47
2023-03-06T12:15:44.462Z,4.63
2023-03-06T12:20:48.901Z,4.61
2023-03-06T12:26:02.320Z,4.78
2023-03-06T12:31:24.890Z,4.90
2023-03-06T12:36:43.131Z,4.87
2023-03-06T12:42:23.442Z,4.75
2023-03-06T12:47:28.822Z,4.66
2023-03-06T12:52:33.146Z,4.53
2023-03-06T12:57:34.987Z,4.45
2023-03-06T13:02:48.912Z,3.68
2023-03-06T13:07:57.173Z,3.13
2023-03-06T13:13:05.085Z,2.98
2023-03-06T13:18:21.873Z,2.71
2023-03-06T13:23:32.550Z,2.56
2023-03-06T13:28:50.606Z,2.73
2023-03-06T13:33:56.282Z,2.91
2023-03-06T13:39:08.739Z,3.10
2023-03-06T13:44:40.277Z,3.22
2023-03-06T13:49:46.357Z,3.34
2023-03-06T13:54:56.819Z,3.46
2023-03-06T14:00:19.205Z,3.69
2023-03-06T14:05:21.758Z,3.75
2023-03-06T14:10:25.714Z,3.98
2023-03-06T14:15:47.861Z,4.13
2023-03-06T14:20:55.095Z,3.95
2023-03-06T14:26:15.136Z,3.92
2023-03-06T14:31:19.654Z,3.93
2023-03-06T14:36:34.037Z,4.04
2023-03-06T14:41:36.632Z,4.24
2023-03-06T14:46:38.422Z,4.30
2023-03-06T14:52:00.550Z,4.11
2023-03-06T14:57:15.277Z,4.22
2023-03-06T15:02:23.731Z,4.28
2023-03-06T15:07:29.238Z,4.20
2023-03-06T15:12:35.905Z,4.23
2023-03-06T15:17:45.246Z,4.09
2023-03-06T15:22:50.821Z,4.14
2023-03-06T15:28:20.275Z,4.08
2023-03-06T15:33:28.514Z,4.10
2023-03-06T15:38:43.137Z,4.19
2023-03-06T15:43:45.029Z,4.07
2023-03-06T15:48:54.848Z,3.92
2023-03-06T15:54:09.778Z,3.74
2023-03-06T15:59:23.546Z,3.54
2023-03-06T16:04:25.503Z,2.47
2023-03-06T16:09:27.434Z,2.06
2023-03-06T16:14:29.471Z,1.70
2023-03-06T16:19:31.153Z,1.59
2023-03-06T16:24:33.153Z,1.58
2023-03-06T16:29:35.157Z,1.57
2023-03-06T16:34:36.841Z,1.62
2023-03-06T16:39:38.678Z,1.61
2023-03-06T16:44:40.862Z,1.53
2023-03-06T16:49:42.546Z,1.62
2023-03-06T16:54:44.759Z,1.63
2023-03-06T16:59:47.027Z,1.74
2023-03-06T17:04:49.102Z,1.69
2023-03-06T17:09:50.801Z,1.62
2023-03-06T17:14:53.166Z,1.64
2023-03-06T17:19:55.001Z,1.58
2023-03-06T17:24:56.834Z,1.62
2023-03-06T17:29:59.127Z,1.61
2023-03-06T17:35:01.491Z,1.64
2023-03-06T17:40:03.660Z,1.69
2023-03-06T17:45:06.296Z,1.57
2023-03-06T17:50:09.032Z,1.42
2023-03-06T17:55:10.996Z,1.67
2023-03-06T18:00:13.378Z,1.81
2023-03-06T18:05:18.131Z,1.70
2023-03-06T18:10:20.136Z,1.91
2023-03-06T18:15:22.274Z,1.79
2023-03-06T18:20:24.301Z,1.87
2023-03-06T18:25:26.111Z,2.00
2023-03-06T18:30:27.827Z,1.92
2023-03-06T18:35:29.476Z,1.78
2023-03-06T18:40:31.169Z,1.75
2023-03-06T18:45:33.510Z,1.82
2023-03-06T18:50:35.287Z,1.88
2023-03-06T18:55:36.901Z,1.80
2023-03-06T19:00:39.007Z,1.88
2023-03-06T19:05:45.866Z,1.83
2023-03-06T19:10:47.606Z,1.81
2023-03-06T19:15:49.350Z,1.79
2023-03-06T19:20:51.229Z,1.96
2023-03-06T19:25:57.485Z,1.85
2023-03-06T19:30:59.234Z,1.88
2023-03-06T19:36:02.366Z,1.93
2023-03-06T19:41:04.473Z,2.13
2023-03-06T19:46:06.702Z,2.07
2023-03-06T19:51:08.524Z,2.00
2023-03-06T19:56:14.757Z,1.82
2023-03-06T20:01:19.124Z,1.82
2023-03-06T20:06:20.873Z,1.80
2023-03-06T20:11:25.281Z,1.72
2023-03-06T20:16:28.203Z,1.63
2023-03-06T20:21:32.275Z,1.63
2023-03-06T20:26:34.879Z,1.61
2023-03-06T20:31:36.933Z,1.44
2023-03-06T20:36:40.454Z,1.43
2023-03-06T20:41:43.121Z,1.20
2023-03-06T20:46:45.443Z,1.15
2023-03-06T20:51:47.328Z,1.14
2023-03-06T20:56:50.192Z,1.04
2023-03-06T21:01:52.166Z,1.24
2023-03-06T21:06:54.318Z,1.31
2023-03-06T21:11:55.998Z,1.25
2023-03-06T21:16:57.713Z,1.21
2023-03-06T21:21:59.498Z,1.18
2023-03-06T21:27:01.222Z,1.17
2023-03-06T21:32:02.944Z,0.99
2023-03-06T21:37:04.606Z,0.96
2023-03-06T21:42:06.942Z,0.87
2023-03-06T21:47:08.592Z,0.90
2023-03-06T21:52:10.259Z,0.94
2023-03-06T21:57:11.926Z,0.90
2023-03-06T22:02:13.583Z,0.89
2023-03-06T22:07:15.772Z,0.86
2023-03-06T22:12:17.460Z,0.83
2023-03-06T22:17:19.101Z,0.81
2023-03-06T22:22:20.818Z,0.68
2023-03-06T22:27:22.818Z,0.84
2023-03-06T22:32:24.582Z,0.85
2023-03-06T22:37:26.355Z,0.72
2023-03-06T22:42:28.645Z,0.96
2023-03-06T22:47:30.255Z,0.83
2023-03-06T22:52:33.028Z,0.84
2023-03-06T22:57:34.864Z,0.88
2023-03-06T23:02:36.548Z,0.81
2023-03-06T23:07:38.275Z,0.87
2023-03-06T23:12:41.664Z,0.73
2023-03-06T23:18:02.098Z,0.74
2023-03-06T23:23:25.108Z,0.67
2023-03-06T23:28:27.907Z,0.77
2023-03-06T23:33:29.939Z,0.80
2023-03-06T23:38:32.001Z,0.77
2023-03-06T23:43:34.499Z,0.89
2023-03-06T23:48:38.101Z,0.79
2023-03-06T23:53:39.793Z,0.80
2023-03-06T23:58:41.527Z,0.74
